Time;durP1;ratioP1;P1;durP2;ratioP2;P2;SDS_P1;SDS_P2;PMS_P1;PMS_P2;Temp;Humidity;BMP_temperature;BMP_pressure;BME280_temperature;BME280_humidity;BME280_pressure;Samples;Min_cycle;Max_cycle;Signal;HPM_P1;HPM_P2
2022/02/06 00:02:14;;;;;;;10.33;7.77;;;3.70;82.00;;;;;;6249935;28;20494;-66
2022/02/06 00:05:17;;;;;;;10.00;7.93;;;3.70;81.10;;;;;;6226409;28;20475;-67
2022/02/06 00:08:22;;;;;;;9.97;8.90;;;3.60;81.00;;;;;;6245572;28;20439;-66
2022/02/06 00:11:25;;;;;;;15.43;10.13;;;3.60;81.10;;;;;;6250283;28;20438;-64
2022/02/06 00:14:30;;;;;;;9.50;8.00;;;3.50;81.10;;;;;;6249401;28;20455;-68
2022/02/06 00:17:33;;;;;;;9.53;8.63;;;3.60;81.50;;;;;;6250187;28;20459;-67
2022/02/06 00:20:46;;;;;;;9.13;8.23;;;3.50;81.60;;;;;;6250159;28;20474;-66
2022/02/06 00:23:52;;;;;;;10.27;8.70;;;3.60;82.00;;;;;;6250107;28;20467;-66
2022/02/06 00:27:01;;;;;;;11.07;8.87;;;3.50;81.60;;;;;;6249971;28;20475;-67
2022/02/06 00:30:16;;;;;;;9.17;8.17;;;3.50;81.80;;;;;;6253875;28;20485;-67
2022/02/06 00:33:34;;;;;;;8.90;7.83;;;3.50;82.00;;;;;;6254804;28;20474;-66
2022/02/06 00:40:00;;;;;;;12.30;8.60;;;3.40;82.80;;;;;;6254598;28;20818;-67
2022/02/06 00:43:03;;;;;;;9.37;8.17;;;3.40;83.70;;;;;;6254392;28;20478;-66
2022/02/06 00:46:10;;;;;;;11.90;8.13;;;3.30;83.70;;;;;;6254478;28;20532;-66
2022/02/06 00:49:16;;;;;;;9.50;8.50;;;3.30;84.40;;;;;;6254982;28;20575;-65
2022/02/06 00:52:25;;;;;;;10.83;8.03;;;3.30;86.20;;;;;;6248110;28;20475;-65
2022/02/06 00:55:28;;;;;;;9.40;8.50;;;3.30;86.90;;;;;;6245659;28;20795;-65
2022/02/06 00:58:31;;;;;;;11.80;8.33;;;3.20;88.10;;;;;;6244264;28;20921;-65
2022/02/06 01:01:41;;;;;;;8.53;7.73;;;3.20;88.50;;;;;;6240003;28;20483;-65
2022/02/06 01:04:44;;;;;;;12.97;8.13;;;3.20;88.20;;;;;;6242918;28;20497;-66
2022/02/06 01:07:48;;;;;;;10.17;9.17;;;3.20;88.50;;;;;;6240622;28;20471;-66
2022/02/06 01:10:52;;;;;;;11.53;8.80;;;3.10;88.20;;;;;;6241420;28;20971;-66
2022/02/06 01:14:05;;;;;;;11.40;8.10;;;3.10;87.70;;;;;;6238758;28;20486;-66
2022/02/06 01:17:21;;;;;;;9.40;8.40;;;3.10;87.70;;;;;;6233693;28;20483;-66
2022/02/06 01:20:30;;;;;;;14.20;8.17;;;3.00;87.70;;;;;;6245166;28;20467;-66
2022/02/06 01:23:42;;;;;;;11.00;8.80;;;3.00;88.50;;;;;;6254385;28;20471;-66
2022/02/06 01:26:50;;;;;;;10.60;8.50;;;3.00;87.70;;;;;;6254951;28;20506;-66
2022/02/06 01:29:58;;;;;;;10.43;9.27;;;3.00;87.80;;;;;;6253842;28;20482;-66
2022/02/06 01:33:09;;;;;;;10.40;8.97;;;3.00;87.90;;;;;;6253499;28;20938;-67
2022/02/06 01:36:23;;;;;;;12.47;9.17;;;2.90;88.30;;;;;;6253489;28;20467;-67
2022/02/06 01:39:41;;;;;;;10.30;8.87;;;2.80;88.40;;;;;;6253189;28;20947;-67
2022/02/06 01:42:49;;;;;;;11.00;8.40;;;2.80;88.90;;;;;;6252784;28;20475;-67
2022/02/06 01:46:11;;;;;;;11.83;9.60;;;2.80;88.90;;;;;;6253393;28;20470;-67
2022/02/06 02:03:04;;;;;;;9.97;8.97;;;2.60;90.20;;;;;;6236501;28;20509;-66
2022/02/06 02:13:14;;;;;;;12.73;9.70;;;2.50;90.40;;;;;;6217565;28;20968;-66
2022/02/06 02:23:27;;;;;;;8.87;8.03;;;2.50;90.40;;;;;;6228453;28;20991;-66
2022/02/06 02:26:48;;;;;;;10.70;9.70;;;2.50;90.40;;;;;;6228389;28;20908;-66
2022/02/06 02:43:55;;;;;;;9.20;8.23;;;2.40;90.60;;;;;;6227665;28;20484;-66
2022/02/06 02:46:58;;;;;;;9.50;8.37;;;2.40;90.70;;;;;;6227766;28;20482;-66
2022/02/06 02:50:06;;;;;;;12.40;9.77;;;2.40;90.80;;;;;;6227542;28;20478;-66
2022/02/06 02:53:15;;;;;;;13.80;10.17;;;2.40;90.90;;;;;;6226992;28;20495;-66
2022/02/06 02:56:34;;;;;;;9.47;8.40;;;2.40;90.80;;;;;;6227463;28;20935;-66
2022/02/06 02:59:51;;;;;;;10.40;8.60;;;2.30;90.80;;;;;;6226806;28;20502;-66
2022/02/06 03:03:04;;;;;;;9.07;8.27;;;2.30;90.80;;;;;;6223689;28;20960;-66
2022/02/06 03:06:09;;;;;;;11.70;9.07;;;2.30;90.90;;;;;;6227656;28;20472;-67
2022/02/06 03:09:13;;;;;;;11.63;8.60;;;2.30;90.90;;;;;;6227632;28;20555;-66
2022/02/06 03:12:24;;;;;;;11.80;8.90;;;2.20;90.80;;;;;;6226683;28;20475;-66
2022/02/06 03:15:37;;;;;;;14.33;8.73;;;2.20;90.90;;;;;;6227858;28;21034;-64
2022/02/06 03:18:46;;;;;;;10.63;8.07;;;2.30;91.00;;;;;;6228594;28;20530;-64
2022/02/06 03:21:51;;;;;;;11.43;8.53;;;2.30;91.00;;;;;;6231042;28;20538;-64
2022/02/06 03:24:59;;;;;;;9.63;8.37;;;2.20;90.90;;;;;;6229505;28;20479;-64
2022/02/06 03:28:04;;;;;;;11.47;7.90;;;2.20;90.90;;;;;;6227490;28;20483;-64
2022/02/06 03:31:07;;;;;;;9.70;8.20;;;2.30;91.00;;;;;;6226375;28;20468;-65
2022/02/06 03:34:10;;;;;;;8.53;7.63;;;2.30;90.90;;;;;;6258107;22;20782;-64
2022/02/06 03:37:13;;;;;;;9.73;8.50;;;2.30;90.80;;;;;;6251372;28;20536;-64
2022/02/06 03:40:22;;;;;;;10.17;8.10;;;2.30;90.70;;;;;;6251126;28;20475;-65
2022/02/06 03:43:34;;;;;;;11.40;9.10;;;2.20;90.70;;;;;;6251109;28;20486;-64
2022/02/06 03:46:44;;;;;;;10.77;8.67;;;2.20;90.80;;;;;;6251357;28;20471;-64
2022/02/06 03:49:55;;;;;;;9.77;7.90;;;2.20;90.80;;;;;;6251090;28;20482;-64
2022/02/06 03:52:58;;;;;;;9.60;8.67;;;2.20;90.80;;;;;;6251349;28;20816;-64
2022/02/06 03:56:01;;;;;;;10.10;8.90;;;2.20;90.80;;;;;;6251058;28;21087;-65
2022/02/06 03:59:06;;;;;;;9.60;8.30;;;2.20;90.80;;;;;;6251116;28;20475;-64
2022/02/06 04:02:09;;;;;;;10.10;7.97;;;2.20;90.80;;;;;;6250733;28;20486;-65
2022/02/06 04:05:14;;;;;;;11.73;8.40;;;2.20;90.90;;;;;;6249995;28;20471;-65
2022/02/06 04:08:18;;;;;;;9.53;8.47;;;2.20;90.90;;;;;;6277454;28;20465;-64
2022/02/06 04:11:32;;;;;;;10.27;9.20;;;2.20;90.90;;;;;;6275560;28;20450;-65
2022/02/06 04:14:51;;;;;;;9.10;8.23;;;2.20;91.00;;;;;;6274794;28;20469;-66
2022/02/06 04:18:08;;;;;;;10.73;7.40;;;2.20;91.00;;;;;;6274903;28;20461;-67
2022/02/06 04:21:11;;;;;;;8.13;7.33;;;2.20;91.10;;;;;;6274244;28;20466;-67
2022/02/06 04:24:15;;;;;;;7.80;7.03;;;2.20;91.10;;;;;;6274694;28;20481;-65
2022/02/06 04:27:18;;;;;;;7.73;6.93;;;2.20;91.00;;;;;;6274501;28;20501;-67
2022/02/06 04:30:23;;;;;;;8.37;7.43;;;2.20;90.90;;;;;;6288845;28;20477;-67
2022/02/06 04:33:27;;;;;;;13.93;7.67;;;2.20;90.70;;;;;;6298834;28;20480;-66
2022/02/06 04:36:36;;;;;;;7.80;7.10;;;2.20;90.70;;;;;;6299504;28;20472;-65
2022/02/06 04:43:26;;;;;;;8.67;6.93;;;2.20;90.70;;;;;;6295413;28;20500;-65
2022/02/06 05:13:50;;;;;;;17.63;11.90;;;2.10;91.00;;;;;;6273639;28;20528;-66
2022/02/06 05:17:14;;;;;;;8.60;7.70;;;2.20;91.00;;;;;;6278240;28;20532;-66
2022/02/06 05:24:12;;;;;;;11.20;7.80;;;2.20;90.90;;;;;;6278658;28;20466;-66
2022/02/06 05:30:45;;;;;;;14.53;9.10;;;2.10;91.00;;;;;;6289363;28;20485;-67
2022/02/06 05:33:49;;;;;;;11.50;9.27;;;2.10;91.10;;;;;;6303201;28;20469;-67
2022/02/06 05:36:53;;;;;;;12.23;10.33;;;2.00;91.20;;;;;;6303359;28;20891;-68
2022/02/06 05:39:57;;;;;;;13.13;11.83;;;1.90;91.50;;;;;;6303253;28;20468;-67
2022/02/06 05:43:00;;;;;;;12.73;9.67;;;1.90;91.60;;;;;;6302792;28;20492;-65
2022/02/06 05:46:04;;;;;;;11.57;10.37;;;1.90;91.80;;;;;;6302994;28;20480;-65
2022/02/06 05:49:11;;;;;;;11.57;10.10;;;1.90;92.00;;;;;;6303014;28;20480;-66
2022/02/06 05:52:17;;;;;;;11.90;10.30;;;1.90;92.10;;;;;;6302839;28;20461;-66
2022/02/06 05:55:20;;;;;;;13.47;9.00;;;2.00;92.20;;;;;;6297952;28;20867;-66
2022/02/06 05:58:23;;;;;;;10.10;9.10;;;2.00;91.90;;;;;;6277931;28;20474;-67
2022/02/06 06:01:26;;;;;;;8.93;8.03;;;2.00;92.10;;;;;;6277513;28;20471;-67
2022/02/06 06:04:29;;;;;;;15.20;7.63;;;2.10;92.10;;;;;;6277187;28;20489;-66
2022/02/06 06:07:34;;;;;;;9.00;7.33;;;2.10;91.90;;;;;;6277260;28;20540;-66
2022/02/06 06:10:38;;;;;;;8.63;7.83;;;2.20;91.80;;;;;;6277479;28;20948;-66
2022/02/06 06:13:41;;;;;;;8.80;7.37;;;2.20;91.60;;;;;;6277169;28;20473;-66
2022/02/06 06:16:44;;;;;;;11.60;7.80;;;2.10;91.80;;;;;;6277367;28;20482;-66
2022/02/06 06:19:48;;;;;;;11.57;8.10;;;2.10;92.00;;;;;;6277361;28;20485;-66
2022/02/06 06:22:54;;;;;;;8.83;7.10;;;2.20;92.00;;;;;;6280378;28;20489;-65
2022/02/06 06:25:57;;;;;;;7.87;7.07;;;2.20;91.80;;;;;;6278696;28;20458;-66
2022/02/06 06:29:00;;;;;;;9.13;6.57;;;2.30;91.70;;;;;;6279582;28;20777;-66
2022/02/06 06:32:04;;;;;;;7.87;6.33;;;2.40;91.60;;;;;;6297191;28;20477;-67
2022/02/06 06:35:09;;;;;;;10.23;7.93;;;2.40;91.90;;;;;;6301460;28;20473;-67
2022/02/06 06:38:14;;;;;;;10.63;7.90;;;2.30;91.40;;;;;;6301561;28;20476;-67
2022/02/06 06:41:17;;;;;;;8.80;7.90;;;2.40;91.50;;;;;;6301526;28;20445;-67
2022/02/06 06:44:20;;;;;;;10.17;7.33;;;2.30;91.50;;;;;;6301400;28;20481;-66
2022/02/06 06:47:24;;;;;;;8.67;7.40;;;2.40;91.60;;;;;;6301661;28;20580;-67
2022/02/06 06:50:32;;;;;;;9.80;8.10;;;2.50;91.60;;;;;;6301594;28;20762;-66
2022/02/06 06:53:40;;;;;;;10.77;7.67;;;2.50;91.60;;;;;;6301321;28;20481;-65
2022/02/06 06:56:51;;;;;;;10.07;7.77;;;2.50;91.20;;;;;;6285255;28;20466;-67
2022/02/06 07:00:21;;;;;;;8.43;7.37;;;2.50;91.30;;;;;;6276002;28;20953;-68
2022/02/06 07:03:26;;;;;;;9.30;7.43;;;2.50;91.30;;;;;;6276281;28;20478;-67
2022/02/06 07:06:29;;;;;;;8.87;7.90;;;2.50;91.40;;;;;;6275839;28;20538;-67
2022/02/06 07:09:34;;;;;;;13.60;8.80;;;2.50;91.40;;;;;;6276263;28;20551;-66
2022/02/06 07:12:37;;;;;;;9.53;7.97;;;2.50;91.40;;;;;;6275598;28;20481;-67
2022/02/06 07:15:40;;;;;;;10.90;9.00;;;2.50;91.50;;;;;;6275914;28;20950;-67
2022/02/06 07:18:43;;;;;;;14.53;12.53;;;2.50;91.40;;;;;;6275704;28;20543;-66
2022/02/06 07:21:47;;;;;;;10.00;9.10;;;2.60;91.40;;;;;;6275752;28;20535;-66
2022/02/06 07:24:53;;;;;;;9.40;7.70;;;2.70;91.40;;;;;;6275446;28;20508;-66
2022/02/06 07:27:56;;;;;;;7.97;7.10;;;2.70;91.00;;;;;;6275985;28;20488;-66
2022/02/06 07:31:00;;;;;;;9.23;6.97;;;2.80;91.00;;;;;;6294819;28;20480;-66
2022/02/06 07:34:03;;;;;;;9.93;7.63;;;2.90;91.00;;;;;;6300128;28;20469;-66
2022/02/06 07:37:06;;;;;;;9.73;8.83;;;2.90;90.90;;;;;;6295452;28;20476;-65
2022/02/06 07:40:12;;;;;;;11.57;9.30;;;3.00;90.80;;;;;;6299424;28;20802;-66
2022/02/06 07:43:15;;;;;;;10.63;9.20;;;3.10;90.80;;;;;;6300197;28;20492;-66
2022/02/06 07:46:22;;;;;;;11.60;9.20;;;3.20;90.60;;;;;;6300137;28;20469;-67
2022/02/06 07:49:25;;;;;;;12.63;10.20;;;3.20;90.50;;;;;;6300078;28;20469;-66
2022/02/06 07:52:29;;;;;;;11.33;9.10;;;3.20;90.30;;;;;;6300217;28;20815;-67
2022/02/06 07:55:33;;;;;;;11.50;10.27;;;3.30;90.20;;;;;;6293644;28;20469;-67
2022/02/06 07:58:36;;;;;;;13.33;10.30;;;3.30;90.10;;;;;;6274732;28;20477;-67
2022/02/06 08:01:41;;;;;;;14.10;11.17;;;3.30;90.00;;;;;;6274947;28;20580;-66
2022/02/06 08:04:47;;;;;;;15.97;11.87;;;3.30;89.90;;;;;;6274521;28;21012;-67
2022/02/06 08:07:51;;;;;;;16.30;10.63;;;3.40;89.50;;;;;;6274763;28;20476;-67
2022/02/06 08:10:59;;;;;;;15.10;10.70;;;3.40;89.50;;;;;;6274538;28;20961;-66
2022/02/06 08:14:02;;;;;;;13.60;12.07;;;3.50;89.60;;;;;;6274382;28;20474;-66
2022/02/06 08:17:06;;;;;;;14.63;12.40;;;3.50;89.50;;;;;;6274570;28;20474;-66
2022/02/06 08:20:12;;;;;;;15.40;13.10;;;3.30;89.80;;;;;;6274316;28;20536;-66
2022/02/06 08:23:15;;;;;;;19.70;13.73;;;3.20;90.20;;;;;;6274412;28;20985;-66
2022/02/06 08:26:19;;;;;;;17.13;11.73;;;3.10;90.40;;;;;;6275862;28;20466;-65
2022/02/06 08:29:22;;;;;;;16.17;12.17;;;2.90;90.70;;;;;;6274737;28;20453;-65
2022/02/06 08:32:27;;;;;;;13.93;12.23;;;2.90;90.90;;;;;;6274177;28;20481;-65
2022/02/06 08:35:31;;;;;;;14.60;11.23;;;3.00;91.10;;;;;;6270035;28;20442;-67
2022/02/06 08:38:34;;;;;;;14.03;12.33;;;3.10;91.10;;;;;;6276724;28;20450;-66
2022/02/06 08:41:38;;;;;;;15.40;11.63;;;3.20;90.60;;;;;;6275963;28;20472;-67
2022/02/06 08:44:44;;;;;;;13.07;11.10;;;3.30;90.20;;;;;;6273321;28;20808;-68
2022/02/06 08:47:47;;;;;;;15.57;10.83;;;3.40;90.00;;;;;;6274001;28;20470;-67
2022/02/06 08:50:50;;;;;;;11.63;10.43;;;3.40;89.50;;;;;;6277245;28;20474;-65
2022/02/06 08:53:54;;;;;;;16.13;11.50;;;3.40;89.00;;;;;;6277334;28;20466;-66
2022/02/06 08:57:01;;;;;;;16.70;11.27;;;3.40;89.20;;;;;;6278376;28;20469;-65
2022/02/06 09:00:07;;;;;;;16.67;12.07;;;3.60;89.70;;;;;;6277319;28;20473;-65
2022/02/06 09:03:10;;;;;;;19.60;12.33;;;3.60;89.30;;;;;;6277644;28;20470;-65
2022/02/06 09:06:14;;;;;;;15.10;12.10;;;3.60;88.40;;;;;;6276615;28;20473;-65
2022/02/06 09:09:18;;;;;;;15.77;14.07;;;3.70;87.80;;;;;;6266831;28;20481;-65
2022/02/06 09:12:23;;;;;;;13.73;11.50;;;3.70;87.70;;;;;;6260975;28;20486;-66
2022/02/06 09:15:27;;;;;;;15.03;10.83;;;3.50;87.40;;;;;;6275078;28;20527;-66
2022/02/06 09:18:32;;;;;;;11.27;10.03;;;3.60;88.20;;;;;;6277045;28;20478;-67
2022/02/06 09:21:35;;;;;;;13.97;9.90;;;3.80;87.40;;;;;;6277158;28;20470;-68
2022/02/06 09:24:39;;;;;;;12.90;10.33;;;3.90;86.80;;;;;;6278275;28;20470;-67
2022/02/06 09:27:44;;;;;;;12.73;9.23;;;4.10;86.20;;;;;;6278443;28;20504;-67
2022/02/06 09:30:47;;;;;;;11.43;9.70;;;4.30;85.60;;;;;;6295612;28;20506;-67
2022/02/06 09:36:52;;;;;;;16.23;11.87;;;4.60;84.10;;;;;;6302847;28;20549;-67
2022/02/06 09:39:56;;;;;;;13.13;10.57;;;4.90;84.20;;;;;;6306667;28;20487;-67
2022/02/06 09:43:01;;;;;;;13.43;9.50;;;5.30;82.60;;;;;;6293742;28;20484;-67
2022/02/06 09:46:04;;;;;;;12.40;10.77;;;5.60;81.40;;;;;;6302938;28;20534;-66
2022/02/06 09:49:08;;;;;;;17.30;11.53;;;5.90;79.90;;;;;;6302808;28;20812;-66
2022/02/06 09:52:17;;;;;;;15.87;12.20;;;6.10;79.30;;;;;;6303233;28;20477;-67
2022/02/06 09:55:22;;;;;;;12.93;11.63;;;6.40;78.40;;;;;;6302613;28;20477;-67
2022/02/06 09:58:56;;;;;;;18.00;11.83;;;6.80;76.80;;;;;;6302693;28;21003;-67
2022/02/06 10:02:04;;;;;;;23.30;13.80;;;7.20;75.00;;;;;;6301051;28;20550;-67
2022/02/06 10:05:09;;;;;;;14.87;11.90;;;7.60;72.80;;;;;;6277765;28;20477;-68
2022/02/06 10:08:16;;;;;;;14.37;11.93;;;7.90;71.60;;;;;;6277679;28;20916;-67
2022/02/06 10:11:23;;;;;;;14.70;11.47;;;8.20;69.30;;;;;;6277672;28;20481;-68
2022/02/06 10:14:30;;;;;;;13.23;10.90;;;9.40;67.90;;;;;;6278823;28;20592;-67
2022/02/06 10:17:35;;;;;;;15.40;10.87;;;11.30;60.70;;;;;;6282939;28;20445;-67
2022/02/06 10:20:45;;;;;;;12.17;10.93;;;12.70;55.30;;;;;;6286980;28;20973;-67
2022/02/06 10:24:01;;;;;;;12.40;9.80;;;13.20;50.60;;;;;;6283426;28;20481;-68
2022/02/06 10:27:17;;;;;;;11.93;10.83;;;14.80;48.80;;;;;;6278813;28;20471;-67
2022/02/06 10:30:36;;;;;;;12.13;10.47;;;17.10;42.70;;;;;;6290548;28;20476;-67
2022/02/06 10:33:49;;;;;;;11.23;10.23;;;19.10;38.40;;;;;;6267696;28;20476;-68
2022/02/06 10:37:08;;;;;;;11.83;10.60;;;21.20;34.30;;;;;;6268566;28;20275;-68
2022/02/06 10:40:12;;;;;;;14.30;11.03;;;22.90;29.60;;;;;;6275847;28;20241;-68
2022/02/06 10:43:16;;;;;;;12.90;11.70;;;22.20;28.80;;;;;;6273549;28;20229;-68
2022/02/06 10:46:21;;;;;;;13.97;12.57;;;22.70;28.90;;;;;;6275129;28;20236;-68
2022/02/06 10:49:24;;;;;;;14.07;12.70;;;25.70;27.20;;;;;;6275843;28;20239;-68
2022/02/06 10:52:28;;;;;;;14.93;12.50;;;28.10;24.30;;;;;;6276197;28;20256;-68
2022/02/06 10:55:31;;;;;;;13.73;12.63;;;30.10;22.00;;;;;;6273492;28;20223;-68
2022/02/06 10:58:37;;;;;;;14.40;13.00;;;31.70;20.10;;;;;;6275050;28;20232;-69
2022/02/06 11:01:42;;;;;;;13.75;12.52;;;33.20;18.80;;;;;;6273540;28;20241;-69
2022/02/06 11:04:59;;;;;;;14.23;12.90;;;33.90;18.10;;;;;;6275158;28;20223;-69
2022/02/06 11:08:04;;;;;;;14.48;12.98;;;33.40;17.50;;;;;;6270780;28;20234;-69
2022/02/06 11:11:10;;;;;;;12.90;11.57;;;33.10;17.60;;;;;;6261934;28;20557;-69
2022/02/06 11:14:14;;;;;;;11.93;10.90;;;34.60;16.80;;;;;;6273039;28;20671;-69
2022/02/06 11:17:20;;;;;;;12.60;11.43;;;35.50;16.00;;;;;;6276719;28;20653;-69
2022/02/06 11:20:24;;;;;;;10.90;10.00;;;35.80;15.60;;;;;;6282242;28;20260;-69
2022/02/06 11:23:46;;;;;;;9.38;8.35;;;35.70;15.50;;;;;;6270786;28;20231;-69
2022/02/06 11:26:49;;;;;;;8.25;7.60;;;35.30;15.50;;;;;;6275295;28;20239;-68
2022/02/06 11:29:53;;;;;;;8.27;7.68;;;35.70;15.00;;;;;;6264088;28;20717;-68
2022/02/06 11:32:58;;;;;;;11.50;10.43;;;36.10;14.40;;;;;;6262102;28;20223;-69
2022/02/06 11:36:06;;;;;;;10.38;9.52;;;36.50;14.50;;;;;;6260909;28;20656;-68
2022/02/06 11:46:50;;;;;;;10.48;9.45;;;37.50;13.70;;;;;;6272902;28;20564;-67
2022/02/06 11:50:02;;;;;;;11.60;10.50;;;38.30;13.50;;;;;;6251943;28;20235;-67
2022/02/06 11:53:09;;;;;;;11.48;10.48;;;38.90;13.40;;;;;;6275073;28;20235;-69
2022/02/06 11:56:23;;;;;;;10.27;9.45;;;39.00;13.10;;;;;;6275177;28;20277;-68
2022/02/06 11:59:27;;;;;;;10.48;9.68;;;37.30;12.90;;;;;;6275184;28;20219;-68
2022/02/06 12:02:32;;;;;;;9.18;8.38;;;36.40;13.70;;;;;;6274895;28;20237;-68
2022/02/06 12:05:37;;;;;;;9.88;8.93;;;36.00;13.80;;;;;;6274414;28;20273;-69
2022/02/06 12:08:44;;;;;;;9.63;8.73;;;35.60;13.70;;;;;;6276055;28;20231;-69
2022/02/06 12:12:16;;;;;;;8.57;7.97;;;35.90;13.80;;;;;;6275059;28;20257;-67
2022/02/06 12:15:29;;;;;;;9.65;8.68;;;36.20;13.60;;;;;;6258785;28;20306;-68
2022/02/06 12:18:34;;;;;;;9.43;8.73;;;36.70;13.40;;;;;;6275853;28;20292;-68
2022/02/06 12:21:39;;;;;;;9.48;8.63;;;36.10;13.70;;;;;;6277742;28;20234;-68
2022/02/06 12:24:42;;;;;;;9.40;8.55;;;36.30;13.50;;;;;;6275410;28;20293;-70
2022/02/06 12:27:47;;;;;;;9.02;8.13;;;36.20;13.30;;;;;;6275613;28;20239;-68
2022/02/06 12:30:56;;;;;;;8.05;7.32;;;35.80;13.70;;;;;;6293029;28;20233;-68
2022/02/06 12:34:11;;;;;;;8.27;7.57;;;35.90;13.70;;;;;;6299482;28;20239;-68
2022/02/06 12:37:22;;;;;;;9.48;8.45;;;36.40;13.30;;;;;;6299377;28;20241;-68
2022/02/06 12:40:27;;;;;;;8.55;7.95;;;36.50;13.30;;;;;;6299418;28;20230;-69
2022/02/06 12:43:36;;;;;;;8.48;7.45;;;36.90;13.10;;;;;;6299029;28;20682;-68
2022/02/06 12:46:40;;;;;;;8.52;7.78;;;36.90;13.20;;;;;;6299151;28;20708;-69
2022/02/06 12:49:43;;;;;;;9.10;8.43;;;36.50;13.20;;;;;;6299088;28;20230;-69
2022/02/06 12:52:49;;;;;;;10.13;8.43;;;35.90;13.40;;;;;;6294856;28;20245;-69
2022/02/06 12:55:56;;;;;;;8.98;8.23;;;35.60;13.70;;;;;;6289442;28;20298;-69
2022/02/06 12:59:00;;;;;;;9.70;8.35;;;35.00;13.80;;;;;;6274440;28;20238;-69
2022/02/06 13:02:06;;;;;;;8.20;7.50;;;35.50;13.90;;;;;;6274760;28;20227;-69
2022/02/06 13:05:14;;;;;;;8.40;7.70;;;36.00;13.70;;;;;;6277911;28;20231;-70
2022/02/06 13:08:19;;;;;;;10.70;9.55;;;36.40;13.60;;;;;;6274695;28;20235;-69
2022/02/06 13:11:32;;;;;;;8.55;7.72;;;36.70;13.60;;;;;;6275316;28;20215;-68
2022/02/06 13:14:57;;;;;;;8.98;8.18;;;36.20;13.70;;;;;;6274177;28;20188;-68
2022/02/06 13:18:17;;;;;;;9.50;8.70;;;36.30;13.70;;;;;;6273571;28;20235;-67
2022/02/06 13:21:36;;;;;;;8.18;7.57;;;36.20;13.80;;;;;;6273039;28;20238;-68
2022/02/06 13:24:56;;;;;;;7.45;6.75;;;35.40;13.90;;;;;;6272763;28;20231;-68
2022/02/06 13:28:25;;;;;;;9.57;8.35;;;36.00;13.90;;;;;;6271943;28;20246;-68
2022/02/06 13:31:45;;;;;;;8.65;7.85;;;35.30;14.00;;;;;;6272352;28;20308;-69
2022/02/06 13:35:06;;;;;;;7.82;7.18;;;35.80;14.00;;;;;;6273773;28;20228;-68
2022/02/06 13:38:16;;;;;;;7.65;7.05;;;36.20;13.60;;;;;;6277103;28;20224;-68
2022/02/06 13:41:25;;;;;;;7.88;7.28;;;36.00;13.70;;;;;;6278160;28;20204;-66
2022/02/06 13:44:28;;;;;;;7.47;6.78;;;36.30;13.70;;;;;;6278357;28;20202;-68
2022/02/06 13:47:31;;;;;;;8.60;7.80;;;33.90;14.00;;;;;;6277893;28;20227;-66
2022/02/06 13:50:40;;;;;;;8.77;8.07;;;32.20;15.00;;;;;;6278091;28;20206;-67
2022/02/06 13:53:54;;;;;;;8.60;7.80;;;29.40;16.80;;;;;;6273172;28;20239;-67
2022/02/06 13:57:04;;;;;;;7.90;7.20;;;28.80;17.70;;;;;;6277913;28;20236;-67
2022/02/06 14:00:11;;;;;;;8.17;7.37;;;29.30;17.50;;;;;;6277509;28;20237;-67
2022/02/06 14:03:15;;;;;;;7.70;7.10;;;29.70;17.20;;;;;;6277646;28;20245;-66
2022/02/06 14:06:41;;;;;;;8.67;7.73;;;28.50;17.50;;;;;;6277992;28;20228;-68
2022/02/06 14:10:04;;;;;;;8.50;7.80;;;27.00;18.80;;;;;;6277525;28;20243;-67
2022/02/06 14:13:21;;;;;;;9.13;8.23;;;25.10;20.60;;;;;;6277201;28;20585;-67
2022/02/06 14:16:24;;;;;;;7.60;6.90;;;23.30;21.60;;;;;;6277672;28;20249;-66
2022/02/06 14:19:41;;;;;;;9.73;7.07;;;21.80;22.60;;;;;;6277540;28;20244;-65
2022/02/06 14:22:46;;;;;;;7.00;6.30;;;20.40;23.70;;;;;;6276983;28;20244;-63
2022/02/06 14:25:50;;;;;;;8.40;7.30;;;19.10;25.10;;;;;;6277159;28;20369;-63
2022/02/06 14:28:55;;;;;;;7.93;6.50;;;18.00;26.20;;;;;;6278913;28;20267;-63
2022/02/06 14:32:20;;;;;;;8.00;7.10;;;17.00;27.20;;;;;;6301400;28;20493;-63
2022/02/06 14:35:28;;;;;;;8.40;7.60;;;16.00;28.40;;;;;;6302167;28;20449;-63
2022/02/06 14:38:36;;;;;;;7.67;6.70;;;15.40;29.60;;;;;;6301624;28;20904;-64
2022/02/06 14:41:48;;;;;;;8.87;7.97;;;14.90;30.30;;;;;;6301734;28;20453;-63
2022/02/06 14:44:53;;;;;;;9.13;8.23;;;14.40;31.20;;;;;;6302461;28;21003;-63
2022/02/06 14:47:56;;;;;;;9.10;7.07;;;13.90;32.10;;;;;;6301126;28;20473;-63
2022/02/06 14:51:00;;;;;;;7.10;6.40;;;13.50;33.20;;;;;;6301796;28;20473;-63
2022/02/06 14:54:05;;;;;;;9.37;7.50;;;13.00;34.50;;;;;;6301555;28;20476;-63
2022/02/06 14:57:10;;;;;;;10.90;7.93;;;12.70;34.90;;;;;;6273021;28;20481;-62
2022/02/06 15:00:15;;;;;;;8.67;7.83;;;12.50;35.50;;;;;;6276078;28;20798;-62
2022/02/06 15:03:18;;;;;;;8.33;6.97;;;12.30;36.20;;;;;;6276000;28;20512;-63
2022/02/06 15:06:22;;;;;;;10.30;7.00;;;12.10;36.60;;;;;;6276279;28;20554;-64
2022/02/06 15:09:25;;;;;;;10.73;7.27;;;12.00;37.10;;;;;;6276002;28;20551;-63
2022/02/06 15:12:28;;;;;;;8.50;7.57;;;11.90;37.30;;;;;;6276015;28;20470;-63
2022/02/06 15:15:37;;;;;;;7.67;6.87;;;11.70;37.90;;;;;;6275892;28;20474;-63
2022/02/06 15:18:46;;;;;;;8.87;7.40;;;11.60;38.20;;;;;;6276364;28;20470;-63
2022/02/06 15:21:49;;;;;;;8.80;6.97;;;11.50;38.70;;;;;;6276734;28;20820;-64
2022/02/06 15:24:52;;;;;;;8.37;7.57;;;11.30;39.20;;;;;;6275836;28;20816;-63
2022/02/06 15:27:55;;;;;;;8.40;7.20;;;11.20;39.70;;;;;;6275157;28;21001;-64
2022/02/06 15:31:00;;;;;;;9.97;7.57;;;11.10;40.30;;;;;;6295121;28;20475;-63
2022/02/06 15:34:03;;;;;;;11.03;8.60;;;11.10;40.70;;;;;;6300092;28;20552;-62
2022/02/06 15:37:07;;;;;;;14.17;7.40;;;11.00;41.00;;;;;;6300283;28;20762;-64
2022/02/06 15:40:16;;;;;;;8.43;7.53;;;10.90;41.20;;;;;;6300027;28;20477;-63
2022/02/06 15:43:19;;;;;;;9.80;7.80;;;10.80;41.60;;;;;;6299788;28;20493;-63
2022/02/06 15:46:26;;;;;;;7.67;6.90;;;10.80;42.00;;;;;;6300052;28;20988;-63
2022/02/06 15:49:29;;;;;;;9.73;8.10;;;10.70;42.20;;;;;;6299713;28;20499;-63
2022/02/06 15:52:33;;;;;;;9.90;7.90;;;10.70;42.60;;;;;;6299812;28;20560;-63
2022/02/06 15:55:36;;;;;;;10.60;7.80;;;10.60;42.80;;;;;;6293145;28;20470;-63
2022/02/06 15:58:43;;;;;;;9.60;8.60;;;10.50;43.10;;;;;;6274399;28;20467;-63
2022/02/06 16:01:49;;;;;;;11.93;8.63;;;10.50;43.30;;;;;;6265574;28;20836;-63
2022/02/06 16:04:53;;;;;;;12.03;9.10;;;10.40;43.80;;;;;;6275412;28;20486;-63
2022/02/06 16:07:56;;;;;;;12.40;8.60;;;10.40;44.50;;;;;;6274395;28;20478;-63
2022/02/06 16:10:59;;;;;;;11.50;9.17;;;10.30;44.10;;;;;;6275025;28;20557;-63
2022/02/06 16:14:06;;;;;;;13.93;11.13;;;10.30;44.20;;;;;;6274486;28;21051;-63
2022/02/06 16:17:12;;;;;;;20.20;13.80;;;10.30;44.30;;;;;;6274524;28;20485;-63
2022/02/06 16:20:16;;;;;;;15.70;12.33;;;10.30;44.50;;;;;;6274448;28;20532;-63
2022/02/06 16:23:19;;;;;;;15.30;11.10;;;10.20;44.90;;;;;;6274411;28;20779;-63
2022/02/06 16:26:23;;;;;;;14.40;10.10;;;10.20;44.70;;;;;;6277519;28;20457;-63
2022/02/06 16:29:26;;;;;;;13.03;9.47;;;10.10;45.30;;;;;;6282480;28;20489;-63
2022/02/06 16:32:31;;;;;;;13.93;10.60;;;10.00;45.70;;;;;;6276873;28;20505;-63
2022/02/06 16:35:34;;;;;;;12.50;9.20;;;10.00;45.80;;;;;;6274304;28;20446;-63
2022/02/06 16:38:59;;;;;;;15.53;10.40;;;9.90;47.10;;;;;;6274214;28;21006;-63
2022/02/06 16:42:02;;;;;;;17.77;10.83;;;9.90;47.30;;;;;;6274149;28;20791;-63
2022/02/06 16:45:06;;;;;;;14.30;11.03;;;9.80;47.70;;;;;;6274453;28;20607;-63
2022/02/06 16:48:10;;;;;;;14.83;12.10;;;9.80;47.90;;;;;;6274130;28;20547;-63
2022/02/06 16:51:14;;;;;;;14.13;10.77;;;9.80;48.20;;;;;;6273940;28;20477;-63
2022/02/06 16:54:17;;;;;;;14.07;11.17;;;9.80;48.30;;;;;;6274168;28;20478;-63
2022/02/06 16:57:20;;;;;;;11.43;10.23;;;9.80;48.50;;;;;;6273699;28;20945;-63
2022/02/06 17:00:23;;;;;;;13.30;11.73;;;9.70;48.50;;;;;;6274189;28;21043;-63
2022/02/06 17:03:28;;;;;;;12.80;11.30;;;9.70;48.40;;;;;;6268420;28;20901;-63
2022/02/06 17:06:35;;;;;;;15.30;11.57;;;9.60;48.40;;;;;;6273919;28;20553;-63
2022/02/06 17:09:39;;;;;;;21.57;12.40;;;9.60;48.70;;;;;;6273588;28;20482;-63
2022/02/06 17:12:42;;;;;;;15.03;11.80;;;9.60;48.80;;;;;;6278137;28;20482;-63
2022/02/06 17:15:45;;;;;;;15.73;11.20;;;9.60;49.00;;;;;;6264361;28;20471;-63
2022/02/06 17:18:50;;;;;;;16.93;12.10;;;9.50;49.40;;;;;;6271510;28;20462;-63
2022/02/06 17:21:55;;;;;;;14.73;11.03;;;9.50;49.70;;;;;;6278550;28;20481;-64
2022/02/06 17:24:58;;;;;;;16.07;13.47;;;9.50;49.90;;;;;;6278626;28;20480;-63
2022/02/06 17:28:01;;;;;;;16.13;12.50;;;9.40;50.10;;;;;;6278644;28;20485;-63
2022/02/06 17:31:04;;;;;;;19.07;14.30;;;9.30;50.50;;;;;;6278254;28;20474;-63
2022/02/06 17:34:09;;;;;;;21.57;15.33;;;9.30;50.60;;;;;;6278277;28;20470;-63
2022/02/06 17:37:13;;;;;;;15.97;13.47;;;9.20;50.80;;;;;;6278344;28;20470;-63
2022/02/06 17:40:16;;;;;;;18.47;13.97;;;9.20;51.20;;;;;;6278350;28;20485;-63
2022/02/06 17:43:19;;;;;;;22.80;15.07;;;9.10;51.50;;;;;;6277832;28;20474;-64